sensor_id;sensor_type;location;lat;lon;timestamp;temperature;humidity
6538;DHT22;3302;52.508;13.454;2023-05-07T00:01:46;9.20;99.90
6538;DHT22;3302;52.508;13.454;2023-05-07T00:04:12;9.10;99.90
6538;DHT22;3302;52.508;13.454;2023-05-07T00:06:39;9.10;99.90
6538;DHT22;3302;52.508;13.454;2023-05-07T00:09:06;9.20;99.90
6538;DHT22;3302;52.508;13.454;2023-05-07T00:11:32;9.10;99.90
6538;DHT22;3302;52.508;13.454;2023-05-07T00:13:58;9.10;99.90
6538;DHT22;3302;52.508;13.454;2023-05-07T00:16:24;9.20;99.90
6538;DHT22;3302;52.508;13.454;2023-05-07T00:18:50;9.20;99.90
6538;DHT22;3302;52.508;13.454;2023-05-07T00:21:16;9.30;99.90
6538;DHT22;3302;52.508;13.454;2023-05-07T00:23:41;9.30;99.90
6538;DHT22;3302;52.508;13.454;2023-05-07T00:26:07;9.30;99.90
6538;DHT22;3302;52.508;13.454;2023-05-07T00:28:33;9.30;99.90
6538;DHT22;3302;52.508;13.454;2023-05-07T00:30:59;9.30;99.90
6538;DHT22;3302;52.508;13.454;2023-05-07T00:33:25;9.20;99.90
6538;DHT22;3302;52.508;13.454;2023-05-07T00:35:52;9.20;99.90
6538;DHT22;3302;52.508;13.454;2023-05-07T00:38:19;9.20;99.90
6538;DHT22;3302;52.508;13.454;2023-05-07T00:40:45;9.00;99.90
6538;DHT22;3302;52.508;13.454;2023-05-07T00:43:11;8.90;99.90
6538;DHT22;3302;52.508;13.454;2023-05-07T00:45:38;9.00;99.90
6538;DHT22;3302;52.508;13.454;2023-05-07T00:48:04;9.10;99.90
6538;DHT22;3302;52.508;13.454;2023-05-07T00:50:31;9.10;99.90
6538;DHT22;3302;52.508;13.454;2023-05-07T00:52:58;9.10;99.90
6538;DHT22;3302;52.508;13.454;2023-05-07T00:55:24;9.10;99.90
6538;DHT22;3302;52.508;13.454;2023-05-07T00:57:51;9.00;99.90
6538;DHT22;3302;52.508;13.454;2023-05-07T01:00:17;8.90;99.90
6538;DHT22;3302;52.508;13.454;2023-05-07T01:02:43;9.00;99.90
6538;DHT22;3302;52.508;13.454;2023-05-07T01:05:14;9.10;99.90
6538;DHT22;3302;52.508;13.454;2023-05-07T01:07:41;9.10;99.90
6538;DHT22;3302;52.508;13.454;2023-05-07T01:10:09;9.10;99.90
6538;DHT22;3302;52.508;13.454;2023-05-07T01:12:36;9.10;99.90
6538;DHT22;3302;52.508;13.454;2023-05-07T01:15:03;9.00;99.90
6538;DHT22;3302;52.508;13.454;2023-05-07T01:17:33;9.00;99.90
6538;DHT22;3302;52.508;13.454;2023-05-07T01:20:00;9.00;99.90
6538;DHT22;3302;52.508;13.454;2023-05-07T01:22:37;9.10;99.90
6538;DHT22;3302;52.508;13.454;2023-05-07T01:25:05;9.00;99.90
6538;DHT22;3302;52.508;13.454;2023-05-07T01:27:31;9.10;99.90
6538;DHT22;3302;52.508;13.454;2023-05-07T01:29:59;9.00;99.90
6538;DHT22;3302;52.508;13.454;2023-05-07T01:32:33;9.10;99.90
6538;DHT22;3302;52.508;13.454;2023-05-07T01:35:03;9.10;99.90
6538;DHT22;3302;52.508;13.454;2023-05-07T01:37:30;9.00;99.90
6538;DHT22;3302;52.508;13.454;2023-05-07T01:39:56;8.90;99.90
6538;DHT22;3302;52.508;13.454;2023-05-07T01:42:23;9.10;99.90
6538;DHT22;3302;52.508;13.454;2023-05-07T01:44:49;9.00;99.90
6538;DHT22;3302;52.508;13.454;2023-05-07T01:47:15;8.90;99.90
6538;DHT22;3302;52.508;13.454;2023-05-07T01:49:42;9.10;99.90
6538;DHT22;3302;52.508;13.454;2023-05-07T01:52:09;9.10;99.90
6538;DHT22;3302;52.508;13.454;2023-05-07T01:54:35;9.10;99.90
6538;DHT22;3302;52.508;13.454;2023-05-07T01:57:01;9.10;99.90
6538;DHT22;3302;52.508;13.454;2023-05-07T01:59:27;9.10;99.90
6538;DHT22;3302;52.508;13.454;2023-05-07T02:01:52;9.10;99.90
6538;DHT22;3302;52.508;13.454;2023-05-07T02:04:18;9.00;99.90
6538;DHT22;3302;52.508;13.454;2023-05-07T02:06:44;9.00;99.90
6538;DHT22;3302;52.508;13.454;2023-05-07T02:09:10;9.00;99.90
6538;DHT22;3302;52.508;13.454;2023-05-07T02:11:36;9.10;99.90
6538;DHT22;3302;52.508;13.454;2023-05-07T02:14:01;9.10;99.90
6538;DHT22;3302;52.508;13.454;2023-05-07T02:16:27;9.00;99.90
6538;DHT22;3302;52.508;13.454;2023-05-07T02:18:53;8.90;99.90
6538;DHT22;3302;52.508;13.454;2023-05-07T02:21:19;9.00;99.90
6538;DHT22;3302;52.508;13.454;2023-05-07T02:23:44;9.00;99.90
6538;DHT22;3302;52.508;13.454;2023-05-07T02:26:11;8.90;99.90
6538;DHT22;3302;52.508;13.454;2023-05-07T02:28:36;8.80;99.90
6538;DHT22;3302;52.508;13.454;2023-05-07T02:31:03;8.90;99.90
6538;DHT22;3302;52.508;13.454;2023-05-07T02:33:29;8.80;99.90
6538;DHT22;3302;52.508;13.454;2023-05-07T02:35:55;9.00;99.90
6538;DHT22;3302;52.508;13.454;2023-05-07T02:38:21;9.10;99.90
6538;DHT22;3302;52.508;13.454;2023-05-07T02:40:47;9.00;99.90
6538;DHT22;3302;52.508;13.454;2023-05-07T02:43:13;8.90;99.90
6538;DHT22;3302;52.508;13.454;2023-05-07T02:45:39;8.90;99.90
6538;DHT22;3302;52.508;13.454;2023-05-07T02:48:05;9.00;99.90
6538;DHT22;3302;52.508;13.454;2023-05-07T02:50:34;9.10;99.90
6538;DHT22;3302;52.508;13.454;2023-05-07T02:52:59;9.10;99.90
6538;DHT22;3302;52.508;13.454;2023-05-07T02:55:25;9.10;99.90
6538;DHT22;3302;52.508;13.454;2023-05-07T02:57:51;9.10;99.90
6538;DHT22;3302;52.508;13.454;2023-05-07T03:00:18;8.80;99.90
6538;DHT22;3302;52.508;13.454;2023-05-07T03:02:44;8.90;99.90
6538;DHT22;3302;52.508;13.454;2023-05-07T03:05:10;8.90;99.90
6538;DHT22;3302;52.508;13.454;2023-05-07T03:07:37;8.80;99.90
6538;DHT22;3302;52.508;13.454;2023-05-07T03:10:04;8.90;99.90
6538;DHT22;3302;52.508;13.454;2023-05-07T03:12:30;8.90;99.90
6538;DHT22;3302;52.508;13.454;2023-05-07T03:14:57;8.90;99.90
6538;DHT22;3302;52.508;13.454;2023-05-07T03:17:22;9.00;99.90
6538;DHT22;3302;52.508;13.454;2023-05-07T03:19:48;9.00;99.90
6538;DHT22;3302;52.508;13.454;2023-05-07T03:22:14;8.90;99.90
6538;DHT22;3302;52.508;13.454;2023-05-07T03:24:40;8.90;99.90
6538;DHT22;3302;52.508;13.454;2023-05-07T03:27:05;8.90;99.90
6538;DHT22;3302;52.508;13.454;2023-05-07T03:29:31;8.90;99.90
6538;DHT22;3302;52.508;13.454;2023-05-07T03:31:57;9.00;99.90
6538;DHT22;3302;52.508;13.454;2023-05-07T03:34:23;8.90;99.90
6538;DHT22;3302;52.508;13.454;2023-05-07T03:36:49;8.90;99.90
6538;DHT22;3302;52.508;13.454;2023-05-07T03:39:15;9.00;99.90
6538;DHT22;3302;52.508;13.454;2023-05-07T03:41:41;9.00;99.90
6538;DHT22;3302;52.508;13.454;2023-05-07T03:44:07;8.90;99.90
6538;DHT22;3302;52.508;13.454;2023-05-07T03:46:33;8.90;99.90
6538;DHT22;3302;52.508;13.454;2023-05-07T03:48:59;8.80;99.90
6538;DHT22;3302;52.508;13.454;2023-05-07T03:51:25;8.80;99.90
6538;DHT22;3302;52.508;13.454;2023-05-07T03:53:51;8.70;99.90
6538;DHT22;3302;52.508;13.454;2023-05-07T03:56:23;8.90;99.90
6538;DHT22;3302;52.508;13.454;2023-05-07T03:58:52;8.90;99.90
6538;DHT22;3302;52.508;13.454;2023-05-07T04:01:18;8.90;99.90
6538;DHT22;3302;52.508;13.454;2023-05-07T04:03:43;9.00;99.90
6538;DHT22;3302;52.508;13.454;2023-05-07T04:06:09;9.00;99.90
6538;DHT22;3302;52.508;13.454;2023-05-07T04:08:36;8.80;99.90
6538;DHT22;3302;52.508;13.454;2023-05-07T04:11:01;8.90;99.90
6538;DHT22;3302;52.508;13.454;2023-05-07T04:13:27;8.80;99.90
6538;DHT22;3302;52.508;13.454;2023-05-07T04:15:55;8.90;99.90
6538;DHT22;3302;52.508;13.454;2023-05-07T04:18:20;8.80;99.90
6538;DHT22;3302;52.508;13.454;2023-05-07T04:20:48;8.70;99.90
6538;DHT22;3302;52.508;13.454;2023-05-07T04:23:14;8.80;99.90
6538;DHT22;3302;52.508;13.454;2023-05-07T04:25:40;8.80;99.90
6538;DHT22;3302;52.508;13.454;2023-05-07T04:28:07;8.90;99.90
6538;DHT22;3302;52.508;13.454;2023-05-07T04:30:32;8.90;99.90
6538;DHT22;3302;52.508;13.454;2023-05-07T04:32:58;8.80;99.90
6538;DHT22;3302;52.508;13.454;2023-05-07T04:35:24;8.60;99.90
6538;DHT22;3302;52.508;13.454;2023-05-07T04:37:50;8.70;99.90
6538;DHT22;3302;52.508;13.454;2023-05-07T04:40:16;8.80;99.90
6538;DHT22;3302;52.508;13.454;2023-05-07T04:42:41;8.80;99.90
6538;DHT22;3302;52.508;13.454;2023-05-07T04:45:07;8.80;99.90
6538;DHT22;3302;52.508;13.454;2023-05-07T04:47:34;8.90;99.90
6538;DHT22;3302;52.508;13.454;2023-05-07T04:50:00;8.90;99.90
6538;DHT22;3302;52.508;13.454;2023-05-07T04:52:25;8.90;99.90
6538;DHT22;3302;52.508;13.454;2023-05-07T04:54:52;8.80;99.90
6538;DHT22;3302;52.508;13.454;2023-05-07T04:57:17;8.90;99.90
6538;DHT22;3302;52.508;13.454;2023-05-07T04:59:44;9.10;99.90
6538;DHT22;3302;52.508;13.454;2023-05-07T05:02:10;9.10;99.90
6538;DHT22;3302;52.508;13.454;2023-05-07T05:04:36;9.20;99.90
6538;DHT22;3302;52.508;13.454;2023-05-07T05:07:02;9.10;99.90
6538;DHT22;3302;52.508;13.454;2023-05-07T05:09:29;9.10;99.90
6538;DHT22;3302;52.508;13.454;2023-05-07T05:11:55;9.30;99.90
6538;DHT22;3302;52.508;13.454;2023-05-07T05:14:21;9.20;99.90
6538;DHT22;3302;52.508;13.454;2023-05-07T05:16:47;9.20;99.90
6538;DHT22;3302;52.508;13.454;2023-05-07T05:19:13;9.30;99.90
6538;DHT22;3302;52.508;13.454;2023-05-07T05:21:39;9.40;99.90
6538;DHT22;3302;52.508;13.454;2023-05-07T05:24:05;9.30;99.90
6538;DHT22;3302;52.508;13.454;2023-05-07T05:26:31;9.00;99.90
6538;DHT22;3302;52.508;13.454;2023-05-07T05:28:57;9.10;99.90
6538;DHT22;3302;52.508;13.454;2023-05-07T05:31:23;9.10;99.90
6538;DHT22;3302;52.508;13.454;2023-05-07T05:33:48;9.20;99.90
6538;DHT22;3302;52.508;13.454;2023-05-07T05:36:14;9.30;99.90
6538;DHT22;3302;52.508;13.454;2023-05-07T05:38:40;9.40;99.90
6538;DHT22;3302;52.508;13.454;2023-05-07T05:41:06;9.50;99.90
6538;DHT22;3302;52.508;13.454;2023-05-07T05:43:32;9.40;99.90
6538;DHT22;3302;52.508;13.454;2023-05-07T05:45:57;9.50;99.90
6538;DHT22;3302;52.508;13.454;2023-05-07T05:48:24;9.40;99.90
6538;DHT22;3302;52.508;13.454;2023-05-07T05:50:51;9.30;99.90
6538;DHT22;3302;52.508;13.454;2023-05-07T05:53:17;9.30;99.90
6538;DHT22;3302;52.508;13.454;2023-05-07T05:55:43;9.30;99.90
6538;DHT22;3302;52.508;13.454;2023-05-07T05:58:09;9.40;99.90
6538;DHT22;3302;52.508;13.454;2023-05-07T06:00:35;9.50;99.90
6538;DHT22;3302;52.508;13.454;2023-05-07T06:03:01;9.60;99.90
6538;DHT22;3302;52.508;13.454;2023-05-07T06:05:27;9.30;99.90
6538;DHT22;3302;52.508;13.454;2023-05-07T06:07:52;9.50;99.90
6538;DHT22;3302;52.508;13.454;2023-05-07T06:10:18;9.60;99.90
6538;DHT22;3302;52.508;13.454;2023-05-07T06:12:44;9.70;99.90
6538;DHT22;3302;52.508;13.454;2023-05-07T06:15:10;9.80;99.90
6538;DHT22;3302;52.508;13.454;2023-05-07T06:17:36;9.70;99.90
6538;DHT22;3302;52.508;13.454;2023-05-07T06:20:02;9.80;99.90
6538;DHT22;3302;52.508;13.454;2023-05-07T06:22:27;9.80;99.90
6538;DHT22;3302;52.508;13.454;2023-05-07T06:24:53;9.80;99.90
6538;DHT22;3302;52.508;13.454;2023-05-07T06:27:19;9.80;99.90
6538;DHT22;3302;52.508;13.454;2023-05-07T06:29:45;9.90;99.90
6538;DHT22;3302;52.508;13.454;2023-05-07T06:32:11;10.00;99.90
6538;DHT22;3302;52.508;13.454;2023-05-07T06:34:38;10.00;99.90
6538;DHT22;3302;52.508;13.454;2023-05-07T06:37:05;9.90;99.90
6538;DHT22;3302;52.508;13.454;2023-05-07T06:39:31;9.80;99.90
6538;DHT22;3302;52.508;13.454;2023-05-07T06:41:57;9.90;99.90
6538;DHT22;3302;52.508;13.454;2023-05-07T06:44:23;10.00;99.90
6538;DHT22;3302;52.508;13.454;2023-05-07T06:46:49;10.00;99.60
6538;DHT22;3302;52.508;13.454;2023-05-07T06:49:15;9.90;99.90
6538;DHT22;3302;52.508;13.454;2023-05-07T06:51:41;10.10;99.50
6538;DHT22;3302;52.508;13.454;2023-05-07T06:54:07;10.20;99.60
6538;DHT22;3302;52.508;13.454;2023-05-07T06:56:33;10.50;99.00
6538;DHT22;3302;52.508;13.454;2023-05-07T06:59:03;10.50;98.80
6538;DHT22;3302;52.508;13.454;2023-05-07T07:01:29;10.60;98.30
6538;DHT22;3302;52.508;13.454;2023-05-07T07:03:55;10.60;98.20
6538;DHT22;3302;52.508;13.454;2023-05-07T07:06:20;10.60;98.20
6538;DHT22;3302;52.508;13.454;2023-05-07T07:08:46;10.50;97.90
6538;DHT22;3302;52.508;13.454;2023-05-07T07:11:12;10.40;98.30
6538;DHT22;3302;52.508;13.454;2023-05-07T07:13:38;10.40;98.40
6538;DHT22;3302;52.508;13.454;2023-05-07T07:16:03;10.70;97.70
6538;DHT22;3302;52.508;13.454;2023-05-07T07:18:29;11.00;97.20
6538;DHT22;3302;52.508;13.454;2023-05-07T07:20:55;11.20;96.70
6538;DHT22;3302;52.508;13.454;2023-05-07T07:23:21;11.30;96.60
6538;DHT22;3302;52.508;13.454;2023-05-07T07:25:47;11.20;96.70
6538;DHT22;3302;52.508;13.454;2023-05-07T07:28:13;10.90;97.10
6538;DHT22;3302;52.508;13.454;2023-05-07T07:30:39;11.10;96.70
6538;DHT22;3302;52.508;13.454;2023-05-07T07:33:05;11.40;96.00
6538;DHT22;3302;52.508;13.454;2023-05-07T07:35:34;11.50;95.00
6538;DHT22;3302;52.508;13.454;2023-05-07T07:38:00;11.40;95.50
6538;DHT22;3302;52.508;13.454;2023-05-07T07:40:27;11.50;95.40
6538;DHT22;3302;52.508;13.454;2023-05-07T07:42:53;11.60;94.90
6538;DHT22;3302;52.508;13.454;2023-05-07T07:45:19;11.70;94.80
6538;DHT22;3302;52.508;13.454;2023-05-07T07:47:45;11.30;94.80
6538;DHT22;3302;52.508;13.454;2023-05-07T07:50:11;11.50;94.90
6538;DHT22;3302;52.508;13.454;2023-05-07T07:52:37;11.70;94.50
6538;DHT22;3302;52.508;13.454;2023-05-07T07:55:03;11.90;94.10
6538;DHT22;3302;52.508;13.454;2023-05-07T07:57:30;11.90;93.50
6538;DHT22;3302;52.508;13.454;2023-05-07T07:59:56;12.00;93.60
6538;DHT22;3302;52.508;13.454;2023-05-07T08:02:21;12.20;93.30
6538;DHT22;3302;52.508;13.454;2023-05-07T08:04:47;12.30;92.80
6538;DHT22;3302;52.508;13.454;2023-05-07T08:07:13;12.30;92.20
6538;DHT22;3302;52.508;13.454;2023-05-07T08:09:39;12.30;92.00
6538;DHT22;3302;52.508;13.454;2023-05-07T08:12:06;12.70;91.50
6538;DHT22;3302;52.508;13.454;2023-05-07T08:14:33;13.00;90.80
6538;DHT22;3302;52.508;13.454;2023-05-07T08:16:58;13.00;90.50
6538;DHT22;3302;52.508;13.454;2023-05-07T08:19:24;13.00;90.30
6538;DHT22;3302;52.508;13.454;2023-05-07T08:21:50;12.80;90.20
6538;DHT22;3302;52.508;13.454;2023-05-07T08:24:18;12.60;90.50
6538;DHT22;3302;52.508;13.454;2023-05-07T08:26:44;12.70;90.20
6538;DHT22;3302;52.508;13.454;2023-05-07T08:29:10;12.70;90.60
6538;DHT22;3302;52.508;13.454;2023-05-07T08:31:36;12.70;90.40
6538;DHT22;3302;52.508;13.454;2023-05-07T08:34:05;13.10;89.60
6538;DHT22;3302;52.508;13.454;2023-05-07T08:36:32;13.20;89.30
6538;DHT22;3302;52.508;13.454;2023-05-07T08:38:58;13.40;88.70
6538;DHT22;3302;52.508;13.454;2023-05-07T08:41:24;13.60;87.60
6538;DHT22;3302;52.508;13.454;2023-05-07T08:43:51;13.70;86.50
6538;DHT22;3302;52.508;13.454;2023-05-07T08:46:19;13.50;86.40
6538;DHT22;3302;52.508;13.454;2023-05-07T08:48:45;13.20;87.00
6538;DHT22;3302;52.508;13.454;2023-05-07T08:51:15;13.50;87.00
6538;DHT22;3302;52.508;13.454;2023-05-07T08:53:43;13.60;85.80
6538;DHT22;3302;52.508;13.454;2023-05-07T08:56:10;13.70;85.80
6538;DHT22;3302;52.508;13.454;2023-05-07T08:58:36;13.70;85.40
6538;DHT22;3302;52.508;13.454;2023-05-07T09:01:09;13.70;84.60
6538;DHT22;3302;52.508;13.454;2023-05-07T09:03:39;13.70;85.40
6538;DHT22;3302;52.508;13.454;2023-05-07T09:06:06;13.70;85.40
6538;DHT22;3302;52.508;13.454;2023-05-07T09:08:33;14.00;85.10
6538;DHT22;3302;52.508;13.454;2023-05-07T09:11:00;14.20;83.30
6538;DHT22;3302;52.508;13.454;2023-05-07T09:13:28;14.10;83.70
6538;DHT22;3302;52.508;13.454;2023-05-07T09:15:55;13.80;83.60
6538;DHT22;3302;52.508;13.454;2023-05-07T09:18:23;13.60;84.80
6538;DHT22;3302;52.508;13.454;2023-05-07T09:20:49;13.60;85.20
6538;DHT22;3302;52.508;13.454;2023-05-07T09:23:14;13.80;84.20
6538;DHT22;3302;52.508;13.454;2023-05-07T09:25:40;13.50;84.00
6538;DHT22;3302;52.508;13.454;2023-05-07T09:28:07;13.80;83.80
6538;DHT22;3302;52.508;13.454;2023-05-07T09:30:33;13.80;84.20
6538;DHT22;3302;52.508;13.454;2023-05-07T09:33:01;13.90;84.70
6538;DHT22;3302;52.508;13.454;2023-05-07T09:35:28;13.80;83.70
6538;DHT22;3302;52.508;13.454;2023-05-07T09:37:55;13.90;84.30
6538;DHT22;3302;52.508;13.454;2023-05-07T09:40:23;14.10;82.80
6538;DHT22;3302;52.508;13.454;2023-05-07T09:42:49;14.00;84.50
6538;DHT22;3302;52.508;13.454;2023-05-07T09:45:16;13.80;83.90
6538;DHT22;3302;52.508;13.454;2023-05-07T09:47:48;13.60;83.10
6538;DHT22;3302;52.508;13.454;2023-05-07T09:50:16;13.60;83.60
6538;DHT22;3302;52.508;13.454;2023-05-07T09:52:44;13.60;83.50
6538;DHT22;3302;52.508;13.454;2023-05-07T09:55:10;13.60;83.50
6538;DHT22;3302;52.508;13.454;2023-05-07T09:57:38;13.90;82.30
6538;DHT22;3302;52.508;13.454;2023-05-07T10:00:06;13.60;83.00
6538;DHT22;3302;52.508;13.454;2023-05-07T10:02:35;13.90;82.00
6538;DHT22;3302;52.508;13.454;2023-05-07T10:05:02;13.90;81.70
6538;DHT22;3302;52.508;13.454;2023-05-07T10:07:29;14.10;81.70
6538;DHT22;3302;52.508;13.454;2023-05-07T10:09:55;14.10;80.80
6538;DHT22;3302;52.508;13.454;2023-05-07T10:12:23;14.40;80.10
6538;DHT22;3302;52.508;13.454;2023-05-07T10:14:50;14.20;80.50
6538;DHT22;3302;52.508;13.454;2023-05-07T10:17:18;14.10;80.90
6538;DHT22;3302;52.508;13.454;2023-05-07T10:19:45;14.00;80.50
6538;DHT22;3302;52.508;13.454;2023-05-07T10:22:11;14.00;79.90
6538;DHT22;3302;52.508;13.454;2023-05-07T10:24:39;14.50;79.70
6538;DHT22;3302;52.508;13.454;2023-05-07T10:27:11;14.50;75.80
6538;DHT22;3302;52.508;13.454;2023-05-07T10:34:54;14.40;78.60
6538;DHT22;3302;52.508;13.454;2023-05-07T10:37:22;14.40;78.40
6538;DHT22;3302;52.508;13.454;2023-05-07T10:39:48;14.40;78.10
6538;DHT22;3302;52.508;13.454;2023-05-07T10:42:15;14.30;79.40
6538;DHT22;3302;52.508;13.454;2023-05-07T10:44:40;14.30;78.60
6538;DHT22;3302;52.508;13.454;2023-05-07T10:47:07;14.50;78.20
6538;DHT22;3302;52.508;13.454;2023-05-07T10:54:44;14.50;76.00
6538;DHT22;3302;52.508;13.454;2023-05-07T10:59:54;14.60;75.70
6538;DHT22;3302;52.508;13.454;2023-05-07T11:02:21;15.10;74.90
6538;DHT22;3302;52.508;13.454;2023-05-07T11:05:19;15.30;73.90
6538;DHT22;3302;52.508;13.454;2023-05-07T11:07:54;14.80;74.00
6538;DHT22;3302;52.508;13.454;2023-05-07T11:10:21;14.60;74.60
6538;DHT22;3302;52.508;13.454;2023-05-07T11:12:48;14.70;74.20
6538;DHT22;3302;52.508;13.454;2023-05-07T11:15:32;14.70;72.40
6538;DHT22;3302;52.508;13.454;2023-05-07T11:17:59;14.40;72.70
6538;DHT22;3302;52.508;13.454;2023-05-07T11:20:45;14.50;73.10
6538;DHT22;3302;52.508;13.454;2023-05-07T11:26:09;14.80;74.40
6538;DHT22;3302;52.508;13.454;2023-05-07T11:28:40;15.00;74.50
6538;DHT22;3302;52.508;13.454;2023-05-07T11:31:06;15.20;73.00
6538;DHT22;3302;52.508;13.454;2023-05-07T11:33:33;15.30;72.30
6538;DHT22;3302;52.508;13.454;2023-05-07T11:36:03;15.10;71.70
6538;DHT22;3302;52.508;13.454;2023-05-07T11:38:30;15.30;72.90
6538;DHT22;3302;52.508;13.454;2023-05-07T11:40:58;15.00;72.70
6538;DHT22;3302;52.508;13.454;2023-05-07T11:43:26;15.10;72.20
6538;DHT22;3302;52.508;13.454;2023-05-07T11:45:52;15.00;72.90
6538;DHT22;3302;52.508;13.454;2023-05-07T11:48:19;15.10;72.70
6538;DHT22;3302;52.508;13.454;2023-05-07T11:53:28;15.30;71.30
6538;DHT22;3302;52.508;13.454;2023-05-07T11:56:09;14.90;71.20
6538;DHT22;3302;52.508;13.454;2023-05-07T11:58:35;14.90;72.20
6538;DHT22;3302;52.508;13.454;2023-05-07T12:01:01;15.20;71.20
6538;DHT22;3302;52.508;13.454;2023-05-07T12:03:27;15.40;72.40
6538;DHT22;3302;52.508;13.454;2023-05-07T12:05:53;15.20;69.20
6538;DHT22;3302;52.508;13.454;2023-05-07T12:08:21;15.40;71.10
6538;DHT22;3302;52.508;13.454;2023-05-07T12:10:49;15.20;71.60
6538;DHT22;3302;52.508;13.454;2023-05-07T12:15:42;15.70;69.80
6538;DHT22;3302;52.508;13.454;2023-05-07T12:18:08;15.80;68.80
6538;DHT22;3302;52.508;13.454;2023-05-07T12:20:38;16.00;69.30
6538;DHT22;3302;52.508;13.454;2023-05-07T12:23:04;15.90;67.90
6538;DHT22;3302;52.508;13.454;2023-05-07T12:25:34;15.60;68.30
6538;DHT22;3302;52.508;13.454;2023-05-07T12:28:01;15.40;67.90
6538;DHT22;3302;52.508;13.454;2023-05-07T12:30:27;15.40;68.50
6538;DHT22;3302;52.508;13.454;2023-05-07T12:32:55;15.50;69.10
6538;DHT22;3302;52.508;13.454;2023-05-07T12:35:31;15.60;66.70
6538;DHT22;3302;52.508;13.454;2023-05-07T12:37:58;15.70;68.40
6538;DHT22;3302;52.508;13.454;2023-05-07T12:40:38;15.70;66.40
6538;DHT22;3302;52.508;13.454;2023-05-07T12:43:04;15.90;66.00
6538;DHT22;3302;52.508;13.454;2023-05-07T12:45:30;16.00;65.90
6538;DHT22;3302;52.508;13.454;2023-05-07T12:48:00;15.90;66.00
6538;DHT22;3302;52.508;13.454;2023-05-07T12:50:33;15.60;65.00
6538;DHT22;3302;52.508;13.454;2023-05-07T12:53:00;15.90;65.70
6538;DHT22;3302;52.508;13.454;2023-05-07T12:55:25;16.00;64.90
6538;DHT22;3302;52.508;13.454;2023-05-07T12:57:53;15.90;65.40
6538;DHT22;3302;52.508;13.454;2023-05-07T13:00:39;15.70;65.30
6538;DHT22;3302;52.508;13.454;2023-05-07T13:03:05;15.70;65.60
6538;DHT22;3302;52.508;13.454;2023-05-07T13:05:33;15.80;63.60
6538;DHT22;3302;52.508;13.454;2023-05-07T13:07:59;15.90;63.90
6538;DHT22;3302;52.508;13.454;2023-05-07T13:10:26;16.10;64.20
6538;DHT22;3302;52.508;13.454;2023-05-07T13:12:52;16.00;60.90
6538;DHT22;3302;52.508;13.454;2023-05-07T13:15:18;16.10;61.30
6538;DHT22;3302;52.508;13.454;2023-05-07T13:17:44;16.30;61.10
6538;DHT22;3302;52.508;13.454;2023-05-07T13:20:10;16.30;62.10
6538;DHT22;3302;52.508;13.454;2023-05-07T13:22:40;16.20;61.20
6538;DHT22;3302;52.508;13.454;2023-05-07T13:25:06;16.10;62.70
6538;DHT22;3302;52.508;13.454;2023-05-07T13:27:32;16.00;63.40
6538;DHT22;3302;52.508;13.454;2023-05-07T13:30:01;15.90;63.90
6538;DHT22;3302;52.508;13.454;2023-05-07T13:32:26;16.20;64.20
6538;DHT22;3302;52.508;13.454;2023-05-07T13:34:52;16.40;61.60
6538;DHT22;3302;52.508;13.454;2023-05-07T13:37:18;16.30;61.80
6538;DHT22;3302;52.508;13.454;2023-05-07T13:39:44;16.30;61.80
6538;DHT22;3302;52.508;13.454;2023-05-07T13:42:11;16.00;62.40
6538;DHT22;3302;52.508;13.454;2023-05-07T13:44:36;16.10;64.00
6538;DHT22;3302;52.508;13.454;2023-05-07T13:47:03;16.00;62.00
6538;DHT22;3302;52.508;13.454;2023-05-07T13:49:29;16.30;61.30
6538;DHT22;3302;52.508;13.454;2023-05-07T13:51:55;16.40;61.70
6538;DHT22;3302;52.508;13.454;2023-05-07T13:54:21;16.40;61.70
6538;DHT22;3302;52.508;13.454;2023-05-07T13:56:46;16.10;61.30
6538;DHT22;3302;52.508;13.454;2023-05-07T13:59:12;16.30;61.20
6538;DHT22;3302;52.508;13.454;2023-05-07T14:01:42;16.10;61.60
6538;DHT22;3302;52.508;13.454;2023-05-07T14:04:07;16.10;62.10
6538;DHT22;3302;52.508;13.454;2023-05-07T14:06:33;16.00;62.50
6538;DHT22;3302;52.508;13.454;2023-05-07T14:08:59;15.90;63.10
6538;DHT22;3302;52.508;13.454;2023-05-07T14:11:25;15.80;63.20
6538;DHT22;3302;52.508;13.454;2023-05-07T14:13:51;15.60;61.90
6538;DHT22;3302;52.508;13.454;2023-05-07T14:16:17;15.90;61.60
6538;DHT22;3302;52.508;13.454;2023-05-07T14:18:43;15.90;61.60
6538;DHT22;3302;52.508;13.454;2023-05-07T14:21:08;15.90;62.60
6538;DHT22;3302;52.508;13.454;2023-05-07T14:23:35;16.00;62.00
6538;DHT22;3302;52.508;13.454;2023-05-07T14:26:01;16.00;62.50
6538;DHT22;3302;52.508;13.454;2023-05-07T14:28:27;15.70;61.90
6538;DHT22;3302;52.508;13.454;2023-05-07T14:30:53;15.80;62.30
6538;DHT22;3302;52.508;13.454;2023-05-07T14:33:19;15.80;62.40
6538;DHT22;3302;52.508;13.454;2023-05-07T14:35:45;15.80;61.90
6538;DHT22;3302;52.508;13.454;2023-05-07T14:38:15;15.70;60.10
6538;DHT22;3302;52.508;13.454;2023-05-07T14:40:42;15.70;60.00
6538;DHT22;3302;52.508;13.454;2023-05-07T14:43:08;15.70;60.60
6538;DHT22;3302;52.508;13.454;2023-05-07T14:45:33;15.70;60.00
6538;DHT22;3302;52.508;13.454;2023-05-07T14:47:59;15.60;60.10
6538;DHT22;3302;52.508;13.454;2023-05-07T14:50:25;15.80;59.50
6538;DHT22;3302;52.508;13.454;2023-05-07T14:52:51;16.40;58.90
6538;DHT22;3302;52.508;13.454;2023-05-07T14:55:16;16.40;59.20
6538;DHT22;3302;52.508;13.454;2023-05-07T14:57:42;16.80;58.40
6538;DHT22;3302;52.508;13.454;2023-05-07T15:00:08;16.50;58.80
6538;DHT22;3302;52.508;13.454;2023-05-07T15:02:35;16.80;59.10
6538;DHT22;3302;52.508;13.454;2023-05-07T15:05:00;16.90;59.40
6538;DHT22;3302;52.508;13.454;2023-05-07T15:07:26;16.80;56.30
6538;DHT22;3302;52.508;13.454;2023-05-07T15:09:52;17.10;57.60
6538;DHT22;3302;52.508;13.454;2023-05-07T15:12:18;17.30;56.60
6538;DHT22;3302;52.508;13.454;2023-05-07T15:14:43;17.10;57.90
6538;DHT22;3302;52.508;13.454;2023-05-07T15:17:09;16.70;58.40
6538;DHT22;3302;52.508;13.454;2023-05-07T15:19:35;16.40;58.90
6538;DHT22;3302;52.508;13.454;2023-05-07T15:22:01;16.30;59.60
6538;DHT22;3302;52.508;13.454;2023-05-07T15:24:30;16.50;59.40
6538;DHT22;3302;52.508;13.454;2023-05-07T15:26:56;16.60;59.60
6538;DHT22;3302;52.508;13.454;2023-05-07T15:29:23;16.60;58.80
6538;DHT22;3302;52.508;13.454;2023-05-07T15:31:51;17.10;59.10
6538;DHT22;3302;52.508;13.454;2023-05-07T15:34:18;17.50;57.70
6538;DHT22;3302;52.508;13.454;2023-05-07T15:36:43;17.10;58.90
6538;DHT22;3302;52.508;13.454;2023-05-07T15:39:09;17.10;58.30
6538;DHT22;3302;52.508;13.454;2023-05-07T15:41:36;16.90;58.20
6538;DHT22;3302;52.508;13.454;2023-05-07T15:44:02;17.20;57.30
6538;DHT22;3302;52.508;13.454;2023-05-07T15:46:28;16.90;56.40
6538;DHT22;3302;52.508;13.454;2023-05-07T15:48:54;16.60;56.30
6538;DHT22;3302;52.508;13.454;2023-05-07T15:51:21;17.50;56.40
6538;DHT22;3302;52.508;13.454;2023-05-07T15:53:47;17.60;55.40
6538;DHT22;3302;52.508;13.454;2023-05-07T15:56:13;17.90;54.20
6538;DHT22;3302;52.508;13.454;2023-05-07T15:58:39;17.70;54.30
6538;DHT22;3302;52.508;13.454;2023-05-07T16:01:05;17.60;54.30
6538;DHT22;3302;52.508;13.454;2023-05-07T16:03:31;17.90;52.90
6538;DHT22;3302;52.508;13.454;2023-05-07T16:05:57;16.90;53.70
6538;DHT22;3302;52.508;13.454;2023-05-07T16:08:23;16.90;55.10
6538;DHT22;3302;52.508;13.454;2023-05-07T16:10:49;17.20;54.30